Time;durP1;ratioP1;P1;durP2;ratioP2;P2;SDS_P1;SDS_P2;PMS_P1;PMS_P2;Temp;Humidity;BMP_temperature;BMP_pressure;BME280_temperature;BME280_humidity;BME280_pressure;Samples;Min_cycle;Max_cycle;Signal;HPM_P1;HPM_P2
2024/01/25 00:01:39;;;;;;;29.23;5.28;;;8.60;99.90;;;;;;5031024;28;20048;-67
2024/01/25 00:04:05;;;;;;;28.42;4.78;;;8.60;99.90;;;;;;5010051;28;20131;-67
2024/01/25 00:06:30;;;;;;;33.47;5.57;;;8.60;99.90;;;;;;5010236;28;20125;-67
2024/01/25 00:08:56;;;;;;;33.78;4.88;;;8.60;99.90;;;;;;5010253;28;20092;-67
2024/01/25 00:11:22;;;;;;;32.95;5.68;;;8.60;99.90;;;;;;5010160;28;20038;-67
2024/01/25 00:13:47;;;;;;;27.00;6.28;;;8.60;99.90;;;;;;5010243;28;20034;-67
2024/01/25 00:16:13;;;;;;;33.20;5.28;;;8.60;99.90;;;;;;5025499;28;20132;-67
2024/01/25 00:18:39;;;;;;;29.02;5.25;;;8.60;99.90;;;;;;5010257;28;20061;-67
2024/01/25 00:21:04;;;;;;;29.77;6.63;;;8.50;99.90;;;;;;5010187;28;20129;-67
2024/01/25 00:23:30;;;;;;;22.95;4.55;;;8.50;99.90;;;;;;5010233;28;20041;-67
2024/01/25 00:25:59;;;;;;;25.20;4.15;;;8.50;99.90;;;;;;5010051;28;20481;-67
2024/01/25 00:28:26;;;;;;;27.92;5.53;;;8.50;99.90;;;;;;5008919;28;20446;-67
2024/01/25 00:30:52;;;;;;;21.60;4.32;;;8.40;99.90;;;;;;5008598;28;20053;-67
2024/01/25 00:33:18;;;;;;;25.45;4.05;;;8.40;99.90;;;;;;5010083;28;20041;-67
2024/01/25 00:35:44;;;;;;;25.58;5.07;;;8.40;99.90;;;;;;5009921;28;20104;-67
2024/01/25 00:38:10;;;;;;;27.30;6.43;;;8.40;99.90;;;;;;5009942;28;20042;-67
2024/01/25 00:40:36;;;;;;;28.75;5.50;;;8.40;99.90;;;;;;4992004;28;20053;-67
2024/01/25 00:43:02;;;;;;;31.23;5.25;;;8.40;99.90;;;;;;5009821;28;20057;-67
2024/01/25 00:45:28;;;;;;;26.92;5.88;;;8.40;99.90;;;;;;5009527;28;20383;-67
2024/01/25 00:47:54;;;;;;;32.67;4.78;;;8.40;99.90;;;;;;5024461;28;20354;-66
2024/01/25 00:50:21;;;;;;;30.15;5.85;;;8.40;99.90;;;;;;5008298;28;20123;-66
2024/01/25 00:52:50;;;;;;;35.33;6.22;;;8.30;99.90;;;;;;5009700;28;20437;-66
2024/01/25 00:55:16;;;;;;;27.05;5.50;;;8.30;99.90;;;;;;5009454;28;20494;-66
2024/01/25 00:57:42;;;;;;;30.15;5.07;;;8.30;99.90;;;;;;5009411;28;20089;-67
2024/01/25 01:00:09;;;;;;;27.52;5.57;;;8.30;99.90;;;;;;5009547;28;20046;-69
2024/01/25 01:02:44;;;;;;;32.67;4.90;;;8.30;99.90;;;;;;5007765;28;20483;-67
2024/01/25 01:05:12;;;;;;;33.78;5.78;;;8.20;99.90;;;;;;5009525;28;20379;-65
2024/01/25 01:07:42;;;;;;;28.15;5.05;;;8.20;99.90;;;;;;5009382;28;20046;-66
2024/01/25 01:10:08;;;;;;;26.50;4.97;;;8.20;99.90;;;;;;5009282;28;20385;-66
2024/01/25 01:12:35;;;;;;;32.50;5.22;;;8.20;99.90;;;;;;5024127;28;20072;-67
2024/01/25 01:15:00;;;;;;;25.13;5.95;;;8.10;99.90;;;;;;5009195;28;20046;-67
2024/01/25 01:17:27;;;;;;;33.58;6.22;;;8.10;99.90;;;;;;5024408;28;20042;-66
2024/01/25 01:19:52;;;;;;;38.42;6.82;;;8.10;99.90;;;;;;5024343;28;20052;-66
2024/01/25 01:22:18;;;;;;;28.67;5.30;;;8.10;99.90;;;;;;5009344;28;20498;-66
2024/01/25 01:24:44;;;;;;;23.98;4.55;;;8.10;99.90;;;;;;5008773;28;20061;-67
2024/01/25 01:27:09;;;;;;;39.80;6.75;;;8.00;99.90;;;;;;5008771;28;20033;-66
2024/01/25 01:29:35;;;;;;;29.60;5.22;;;8.00;99.90;;;;;;5008758;28;20449;-66
2024/01/25 01:32:01;;;;;;;37.97;6.00;;;7.90;99.90;;;;;;5009198;28;20038;-66
2024/01/25 01:34:26;;;;;;;32.45;4.85;;;7.90;99.90;;;;;;5008847;28;20112;-65
2024/01/25 01:36:52;;;;;;;28.30;5.43;;;7.90;99.90;;;;;;5009038;28;20046;-66
2024/01/25 01:39:18;;;;;;;34.08;6.10;;;7.90;99.90;;;;;;5008742;28;20501;-66
2024/01/25 01:41:48;;;;;;;24.42;5.32;;;7.90;99.90;;;;;;5009191;28;20436;-66
2024/01/25 01:44:14;;;;;;;31.30;5.07;;;7.80;99.90;;;;;;5009006;28;20046;-67
2024/01/25 01:46:40;;;;;;;30.88;5.75;;;7.90;99.90;;;;;;5009289;28;20046;-66
2024/01/25 01:49:08;;;;;;;29.63;5.15;;;7.90;99.90;;;;;;4991226;28;20042;-67
2024/01/25 01:51:35;;;;;;;24.92;4.50;;;7.80;99.90;;;;;;5009205;28;20053;-66
2024/01/25 01:54:06;;;;;;;24.30;4.80;;;7.80;99.90;;;;;;5009294;28;20037;-67
2024/01/25 01:56:33;;;;;;;29.48;5.70;;;7.80;99.90;;;;;;5008757;28;20042;-67
2024/01/25 01:59:04;;;;;;;33.40;5.72;;;7.70;99.90;;;;;;5008998;28;20060;-67
2024/01/25 02:01:30;;;;;;;24.77;5.43;;;7.80;99.90;;;;;;5024053;28;20049;-67
2024/01/25 02:03:56;;;;;;;29.10;5.30;;;7.70;99.90;;;;;;5023988;28;20046;-67
2024/01/25 02:06:24;;;;;;;28.42;5.00;;;7.70;99.90;;;;;;5007943;28;20078;-67
2024/01/25 02:08:50;;;;;;;30.60;5.00;;;7.70;99.90;;;;;;5008790;28;20046;-67
2024/01/25 02:11:17;;;;;;;46.78;5.85;;;7.70;99.90;;;;;;5008851;28;20067;-67
2024/01/25 02:13:43;;;;;;;33.22;5.82;;;7.70;99.90;;;;;;5007274;28;20084;-67
2024/01/25 02:16:09;;;;;;;39.63;6.50;;;7.60;99.90;;;;;;5008845;28;20052;-66
2024/01/25 02:18:35;;;;;;;33.28;6.10;;;7.60;99.90;;;;;;5023899;28;20629;-67
2024/01/25 02:21:01;;;;;;;32.55;5.05;;;7.60;99.90;;;;;;5007610;28;20478;-67
2024/01/25 02:23:27;;;;;;;22.70;5.70;;;7.50;99.90;;;;;;5008850;28;20052;-66
2024/01/25 02:25:53;;;;;;;33.88;6.18;;;7.60;99.90;;;;;;5008449;28;20042;-66
2024/01/25 02:28:18;;;;;;;30.88;5.45;;;7.50;99.90;;;;;;5023280;28;20512;-67
2024/01/25 02:30:44;;;;;;;28.30;5.20;;;7.50;99.90;;;;;;5008717;28;20117;-66
2024/01/25 02:33:11;;;;;;;37.67;5.53;;;7.40;99.90;;;;;;5008277;28;20486;-66
2024/01/25 02:35:37;;;;;;;30.98;6.00;;;7.50;99.90;;;;;;5008306;28;20120;-66
2024/01/25 02:38:03;;;;;;;30.58;6.32;;;7.40;99.90;;;;;;5008633;28;20065;-67
2024/01/25 02:40:29;;;;;;;35.28;5.45;;;7.40;99.90;;;;;;5008532;28;20305;-66
2024/01/25 02:42:56;;;;;;;33.83;6.57;;;7.40;99.90;;;;;;5023473;28;20042;-67
2024/01/25 02:45:22;;;;;;;31.80;4.93;;;7.40;99.90;;;;;;5024645;28;20046;-66
2024/01/25 02:47:48;;;;;;;33.10;5.32;;;7.40;99.90;;;;;;5009245;28;20192;-66
2024/01/25 02:50:14;;;;;;;32.20;5.97;;;7.40;99.90;;;;;;5008404;28;20149;-66
2024/01/25 02:52:40;;;;;;;19.48;4.60;;;7.40;99.90;;;;;;5008519;28;20045;-67
2024/01/25 02:55:06;;;;;;;34.53;5.75;;;7.30;99.90;;;;;;5023565;28;20442;-67
2024/01/25 02:57:32;;;;;;;22.67;4.60;;;7.30;99.90;;;;;;5008648;28;20359;-66
2024/01/25 02:59:58;;;;;;;34.03;6.30;;;7.30;99.90;;;;;;5023352;28;20130;-67
2024/01/25 03:02:24;;;;;;;20.25;4.38;;;7.20;99.90;;;;;;5008056;28;20450;-66
2024/01/25 03:04:50;;;;;;;31.13;5.07;;;7.20;99.90;;;;;;5008233;28;20129;-67
2024/01/25 03:07:16;;;;;;;28.80;5.57;;;7.20;99.90;;;;;;5023599;28;20048;-67
2024/01/25 03:09:41;;;;;;;32.40;5.50;;;7.20;99.90;;;;;;4993317;28;20045;-67
2024/01/25 03:12:07;;;;;;;39.97;5.70;;;7.20;99.90;;;;;;5012094;28;20038;-66
2024/01/25 03:14:33;;;;;;;33.20;5.55;;;7.20;99.90;;;;;;5027188;28;20771;-66
2024/01/25 03:16:59;;;;;;;27.58;5.97;;;7.10;99.90;;;;;;5011967;28;20433;-66
2024/01/25 03:19:25;;;;;;;31.23;5.38;;;7.10;99.90;;;;;;5011768;28;20128;-67
2024/01/25 03:21:51;;;;;;;28.38;5.63;;;7.10;99.90;;;;;;5027003;28;20106;-66
2024/01/25 03:24:17;;;;;;;29.60;5.90;;;7.10;99.90;;;;;;5011651;28;20407;-67
2024/01/25 03:26:43;;;;;;;32.05;5.03;;;7.10;99.90;;;;;;5027330;28;20206;-66
2024/01/25 03:29:09;;;;;;;27.70;5.63;;;7.10;99.90;;;;;;5010697;28;20463;-67
2024/01/25 03:31:35;;;;;;;46.28;7.35;;;7.00;99.90;;;;;;5012034;28;20355;-66
2024/01/25 03:34:02;;;;;;;33.17;6.03;;;6.90;99.90;;;;;;5026400;28;20037;-66
2024/01/25 03:36:27;;;;;;;27.48;5.25;;;7.00;99.90;;;;;;5011908;28;20454;-66
2024/01/25 03:38:53;;;;;;;32.40;6.03;;;7.00;99.90;;;;;;5026414;28;20125;-65
2024/01/25 03:41:19;;;;;;;36.38;5.95;;;7.00;99.90;;;;;;5011543;28;20046;-66
2024/01/25 03:43:45;;;;;;;29.75;5.28;;;7.00;99.90;;;;;;5011427;28;20030;-66
2024/01/25 03:46:14;;;;;;;30.98;4.97;;;7.00;99.90;;;;;;5010292;28;20053;-67
2024/01/25 03:48:39;;;;;;;36.65;5.80;;;7.00;99.90;;;;;;5026605;28;20515;-67
2024/01/25 03:51:05;;;;;;;33.22;6.60;;;7.00;99.90;;;;;;5009922;28;20121;-67
2024/01/25 03:53:31;;;;;;;27.80;6.43;;;7.00;99.90;;;;;;5011516;28;20084;-68
2024/01/25 03:55:56;;;;;;;36.22;6.40;;;6.90;99.90;;;;;;5011135;28;20045;-67
2024/01/25 03:58:22;;;;;;;29.75;5.40;;;6.90;99.90;;;;;;5026261;28;20042;-68
2024/01/25 04:00:48;;;;;;;29.08;5.93;;;6.90;99.90;;;;;;5011220;28;20433;-67
2024/01/25 04:03:14;;;;;;;28.20;5.47;;;6.90;99.90;;;;;;5010804;28;20140;-67
2024/01/25 04:05:39;;;;;;;31.23;5.68;;;6.90;99.90;;;;;;5026097;28;20057;-68
2024/01/25 04:08:06;;;;;;;24.67;4.95;;;6.90;99.90;;;;;;5011043;28;20053;-68
2024/01/25 04:10:32;;;;;;;31.80;5.68;;;6.90;99.90;;;;;;5011194;28;20147;-68
2024/01/25 04:12:57;;;;;;;31.45;6.07;;;6.80;99.90;;;;;;5010951;28;20354;-67
2024/01/25 04:15:23;;;;;;;26.00;6.32;;;6.80;99.90;;;;;;5025936;28;20056;-67
2024/01/25 04:17:49;;;;;;;31.42;5.55;;;6.80;99.90;;;;;;5010596;28;20034;-66
2024/01/25 04:20:15;;;;;;;30.77;5.32;;;6.80;99.90;;;;;;5025421;28;20037;-66
2024/01/25 04:22:41;;;;;;;43.45;6.28;;;6.70;99.90;;;;;;5010420;28;20429;-66
2024/01/25 04:25:07;;;;;;;33.38;6.03;;;6.80;99.90;;;;;;5025579;28;20046;-66
2024/01/25 04:27:33;;;;;;;29.38;5.43;;;6.70;99.90;;;;;;5025389;28;20041;-66
2024/01/25 04:29:59;;;;;;;33.88;5.97;;;6.70;99.90;;;;;;5025562;28;20053;-66
2024/01/25 04:32:24;;;;;;;32.63;5.68;;;6.70;99.90;;;;;;5010343;28;20411;-66
2024/01/25 04:34:50;;;;;;;29.67;4.97;;;6.80;99.90;;;;;;5025386;28;20453;-66
2024/01/25 04:37:16;;;;;;;28.60;5.13;;;6.70;99.90;;;;;;5009035;28;20049;-66
2024/01/25 04:39:41;;;;;;;37.00;4.97;;;6.60;99.90;;;;;;5025624;28;20045;-67
2024/01/25 04:42:08;;;;;;;26.65;5.75;;;6.60;99.90;;;;;;5010279;28;20087;-66
2024/01/25 04:44:33;;;;;;;32.80;5.25;;;6.60;99.90;;;;;;5010244;28;20575;-66
2024/01/25 04:47:00;;;;;;;30.88;6.47;;;6.60;99.90;;;;;;5009987;28;20049;-67
2024/01/25 04:49:26;;;;;;;30.73;6.22;;;6.60;99.90;;;;;;5024888;28;20057;-66
2024/01/25 04:51:51;;;;;;;30.30;5.20;;;6.60;99.90;;;;;;5010134;28;20037;-67
2024/01/25 04:54:17;;;;;;;39.03;6.20;;;6.60;99.90;;;;;;5009679;28;20042;-67
2024/01/25 04:56:43;;;;;;;24.45;5.60;;;6.50;99.90;;;;;;5008350;28;20049;-67
2024/01/25 04:59:10;;;;;;;33.08;6.13;;;6.50;99.90;;;;;;5024639;28;20041;-67
2024/01/25 05:01:35;;;;;;;22.45;4.18;;;6.50;99.90;;;;;;5009582;28;20394;-67
2024/01/25 05:04:01;;;;;;;29.02;5.82;;;6.40;99.90;;;;;;5009221;28;20157;-67
2024/01/25 05:06:27;;;;;;;33.75;6.22;;;6.40;99.90;;;;;;5024552;28;20058;-67
2024/01/25 05:08:53;;;;;;;26.13;5.03;;;6.40;99.90;;;;;;5024517;28;20462;-67
2024/01/25 05:11:19;;;;;;;24.00;4.85;;;6.40;99.90;;;;;;5009624;28;20042;-67
2024/01/25 05:13:44;;;;;;;37.22;6.07;;;6.40;99.90;;;;;;5009426;28;20050;-67
2024/01/25 05:16:11;;;;;;;36.67;5.53;;;6.30;99.90;;;;;;5023803;28;20079;-67
2024/01/25 05:18:37;;;;;;;36.80;5.43;;;6.20;99.90;;;;;;5009205;28;20045;-67
2024/01/25 05:21:03;;;;;;;33.20;6.97;;;6.30;99.90;;;;;;5009080;28;20045;-65
2024/01/25 05:23:28;;;;;;;36.10;5.40;;;6.30;99.90;;;;;;5009212;28;20077;-65
2024/01/25 05:25:54;;;;;;;31.83;5.07;;;6.30;99.90;;;;;;5009162;28;20425;-66
2024/01/25 05:28:20;;;;;;;40.75;6.07;;;6.20;99.90;;;;;;5008652;28;20123;-66
2024/01/25 05:30:45;;;;;;;27.77;6.22;;;6.20;99.90;;;;;;5008334;28;20081;-66
2024/01/25 05:33:11;;;;;;;25.42;4.82;;;6.20;99.90;;;;;;5008870;28;20046;-66
2024/01/25 05:35:37;;;;;;;31.75;5.70;;;6.20;99.90;;;;;;5023780;28;20128;-66
2024/01/25 05:38:02;;;;;;;24.77;6.30;;;6.20;99.90;;;;;;5008827;28;20056;-67
2024/01/25 05:40:28;;;;;;;35.85;6.40;;;6.20;99.90;;;;;;5024240;28;20065;-66
2024/01/25 05:42:54;;;;;;;35.92;6.65;;;6.20;99.90;;;;;;5008907;28;20065;-67
2024/01/25 05:45:21;;;;;;;28.55;4.88;;;6.10;99.90;;;;;;5007354;28;20569;-66
2024/01/25 05:47:49;;;;;;;36.72;6.07;;;6.20;99.90;;;;;;5008925;28;20599;-67
2024/01/25 05:50:15;;;;;;;34.83;4.90;;;6.10;99.90;;;;;;5023737;28;20045;-67
2024/01/25 05:52:41;;;;;;;36.05;5.88;;;6.10;99.90;;;;;;5008949;28;20068;-67
2024/01/25 05:55:07;;;;;;;37.90;5.90;;;6.20;99.90;;;;;;5007265;28;20469;-67
2024/01/25 05:57:35;;;;;;;29.70;4.68;;;6.10;99.90;;;;;;5023844;28;20049;-67
2024/01/25 06:00:01;;;;;;;28.88;5.05;;;6.10;99.90;;;;;;5008401;28;20044;-67
2024/01/25 06:02:27;;;;;;;35.42;4.85;;;6.10;99.90;;;;;;5008242;28;20062;-67
2024/01/25 06:04:53;;;;;;;27.38;4.90;;;6.10;99.90;;;;;;5023770;28;20050;-67
2024/01/25 06:07:18;;;;;;;25.63;4.57;;;6.00;99.90;;;;;;4990868;28;20081;-68
2024/01/25 06:09:44;;;;;;;28.90;4.43;;;6.00;99.90;;;;;;5008273;28;20362;-66
2024/01/25 06:12:10;;;;;;;37.42;7.00;;;6.00;99.90;;;;;;5023564;28;20049;-66
2024/01/25 06:14:35;;;;;;;31.65;5.70;;;5.90;99.90;;;;;;5006756;28;20038;-67
2024/01/25 06:17:01;;;;;;;38.70;5.68;;;5.90;99.90;;;;;;5008274;28;20735;-66
2024/01/25 06:19:27;;;;;;;34.05;5.20;;;6.00;99.90;;;;;;5023230;28;20046;-66
2024/01/25 06:21:53;;;;;;;33.00;5.18;;;6.00;99.90;;;;;;5011112;28;20136;-66
2024/01/25 06:24:19;;;;;;;37.22;6.55;;;6.00;99.90;;;;;;5027813;28;20045;-67
2024/01/25 06:26:44;;;;;;;26.13;5.03;;;5.90;99.90;;;;;;5027389;28;20034;-66
2024/01/25 06:29:10;;;;;;;28.25;5.47;;;5.90;99.90;;;;;;5022779;28;20048;-67
2024/01/25 06:31:43;;;;;;;28.00;4.78;;;5.90;99.90;;;;;;5007387;28;20551;-67
2024/01/25 06:34:09;;;;;;;41.08;6.95;;;5.90;99.90;;;;;;5008152;28;20053;-67
2024/01/25 06:36:35;;;;;;;41.38;6.05;;;5.80;99.90;;;;;;5008078;28;20042;-67
2024/01/25 06:39:00;;;;;;;33.50;5.53;;;5.80;99.90;;;;;;5008023;28;20042;-66
2024/01/25 06:41:26;;;;;;;29.35;5.07;;;5.80;99.90;;;;;;5007928;28;20081;-67
2024/01/25 06:43:52;;;;;;;28.83;5.82;;;5.80;99.90;;;;;;5009697;28;20145;-66
2024/01/25 06:46:17;;;;;;;32.47;7.20;;;5.80;99.90;;;;;;5011522;28;20034;-66
2024/01/25 06:48:43;;;;;;;26.17;7.10;;;5.90;99.90;;;;;;5026778;28;20472;-69
2024/01/25 06:51:09;;;;;;;29.98;5.47;;;5.90;99.90;;;;;;5010221;28;20046;-64
2024/01/25 06:53:34;;;;;;;37.65;5.68;;;6.00;99.90;;;;;;5011865;28;20050;-67
2024/01/25 06:56:00;;;;;;;29.35;4.45;;;5.90;99.90;;;;;;5026418;28;20061;-66
2024/01/25 06:58:26;;;;;;;30.73;4.80;;;5.90;99.90;;;;;;5026384;28;20116;-67
2024/01/25 07:00:52;;;;;;;31.55;7.00;;;5.90;99.90;;;;;;5026728;28;20042;-66
2024/01/25 07:03:18;;;;;;;33.85;5.82;;;5.80;99.90;;;;;;5011102;28;20154;-66
2024/01/25 07:05:44;;;;;;;27.27;5.25;;;5.80;99.90;;;;;;5026520;28;20046;-67
2024/01/25 07:08:13;;;;;;;29.77;4.75;;;5.80;99.90;;;;;;5028610;28;20059;-66
2024/01/25 07:10:39;;;;;;;31.25;4.55;;;5.80;99.90;;;;;;5046703;28;20406;-67
2024/01/25 07:13:05;;;;;;;26.48;4.72;;;5.80;99.90;;;;;;5030737;28;20377;-67
2024/01/25 07:15:31;;;;;;;30.95;6.70;;;5.80;99.90;;;;;;5030362;28;20052;-66
2024/01/25 07:17:56;;;;;;;25.60;5.07;;;5.80;99.90;;;;;;5030571;28;20045;-68
2024/01/25 07:20:22;;;;;;;30.48;6.50;;;5.80;99.90;;;;;;5029362;28;20045;-68
2024/01/25 07:22:48;;;;;;;26.27;4.78;;;5.80;99.90;;;;;;5030394;28;20087;-66
2024/01/25 07:25:14;;;;;;;37.70;6.78;;;5.80;99.90;;;;;;5030542;28;20057;-68
2024/01/25 07:27:39;;;;;;;32.25;5.32;;;5.80;99.90;;;;;;5025140;28;20096;-69
2024/01/25 07:30:07;;;;;;;35.50;5.80;;;5.80;99.90;;;;;;5010614;28;20061;-68
2024/01/25 07:32:35;;;;;;;27.40;5.20;;;5.80;99.90;;;;;;5025764;28;20605;-68
2024/01/25 07:35:01;;;;;;;23.45;4.35;;;5.80;99.90;;;;;;5009069;28;20050;-69
2024/01/25 07:37:26;;;;;;;33.13;5.85;;;5.80;99.90;;;;;;5024488;28;20056;-68
2024/01/25 07:39:52;;;;;;;37.53;6.15;;;5.70;99.90;;;;;;5010072;28;20099;-69
2024/01/25 07:42:18;;;;;;;31.30;4.68;;;5.70;99.90;;;;;;5024775;28;20061;-68
2024/01/25 07:44:44;;;;;;;30.50;5.10;;;5.70;99.90;;;;;;5008454;28;20417;-69
2024/01/25 07:47:10;;;;;;;42.78;6.75;;;5.70;99.90;;;;;;5009999;28;20038;-69
2024/01/25 07:49:35;;;;;;;37.13;6.15;;;5.70;99.90;;;;;;5010290;28;20048;-69
2024/01/25 07:52:01;;;;;;;34.47;5.50;;;5.70;99.90;;;;;;5010484;28;20389;-70
2024/01/25 07:54:27;;;;;;;29.88;5.40;;;5.70;99.90;;;;;;5009743;28;20068;-70
2024/01/25 07:56:52;;;;;;;37.42;5.20;;;5.70;99.90;;;;;;5009998;28;20466;-69
2024/01/25 07:59:18;;;;;;;29.95;5.47;;;5.70;99.90;;;;;;5004133;28;20073;-69
2024/01/25 08:01:44;;;;;;;26.77;5.05;;;5.70;99.90;;;;;;5009794;28;20042;-70
2024/01/25 08:04:09;;;;;;;37.97;5.97;;;5.70;99.90;;;;;;5009590;28;20195;-70
2024/01/25 08:06:35;;;;;;;25.98;5.25;;;5.70;99.90;;;;;;5009869;28;20045;-70
2024/01/25 08:09:01;;;;;;;35.97;4.85;;;5.80;99.90;;;;;;5009318;28;20038;-69
2024/01/25 08:11:26;;;;;;;36.45;5.72;;;5.70;99.90;;;;;;5009445;28;20037;-69
2024/01/25 08:13:52;;;;;;;24.35;5.03;;;5.80;99.90;;;;;;5006810;28;20382;-69
2024/01/25 08:16:19;;;;;;;46.67;7.20;;;5.70;99.90;;;;;;5024499;28;20101;-69
2024/01/25 08:18:48;;;;;;;28.35;5.13;;;5.70;99.90;;;;;;5009497;28;20041;-69
2024/01/25 08:21:14;;;;;;;32.35;5.35;;;5.70;99.90;;;;;;5007180;28;20542;-69
2024/01/25 08:23:41;;;;;;;30.60;5.60;;;5.80;99.90;;;;;;5023934;28;20379;-69
2024/01/25 08:26:09;;;;;;;37.63;6.40;;;5.70;99.90;;;;;;5024687;28;20528;-69
2024/01/25 08:28:44;;;;;;;22.80;5.20;;;5.80;99.90;;;;;;5009448;28;20041;-69
2024/01/25 08:31:10;;;;;;;30.65;6.88;;;5.80;99.90;;;;;;5024945;28;20061;-69
2024/01/25 08:33:36;;;;;;;34.75;5.80;;;5.80;99.90;;;;;;5024810;28;20050;-69
2024/01/25 08:36:02;;;;;;;32.85;6.10;;;5.70;99.90;;;;;;5010175;28;20041;-69
2024/01/25 08:38:28;;;;;;;39.53;5.95;;;5.80;99.90;;;;;;5008041;28;20058;-69
2024/01/25 08:40:53;;;;;;;33.97;5.63;;;5.70;99.90;;;;;;5010350;28;20056;-68
2024/01/25 08:43:19;;;;;;;31.30;5.55;;;5.80;99.90;;;;;;5009356;28;20064;-68
2024/01/25 08:45:45;;;;;;;31.25;6.15;;;5.80;99.90;;;;;;5008622;28;20105;-69
2024/01/25 08:48:13;;;;;;;33.30;5.72;;;5.80;99.90;;;;;;5024915;28;20057;-69
2024/01/25 08:50:38;;;;;;;26.85;6.40;;;5.80;99.90;;;;;;5024959;28;20092;-69
2024/01/25 08:53:05;;;;;;;36.92;6.97;;;5.80;99.90;;;;;;5009898;28;20081;-69
2024/01/25 08:55:31;;;;;;;26.35;5.47;;;5.70;99.90;;;;;;5009779;28;20082;-69
2024/01/25 08:57:56;;;;;;;33.83;6.47;;;5.80;99.90;;;;;;5008346;28;20087;-69
2024/01/25 09:00:22;;;;;;;31.98;5.60;;;5.80;99.90;;;;;;5010005;28;20132;-69
2024/01/25 09:02:48;;;;;;;36.08;6.28;;;5.80;99.90;;;;;;5009665;28;20046;-69
2024/01/25 09:05:14;;;;;;;33.00;9.23;;;5.80;99.90;;;;;;5008045;28;20116;-69
2024/01/25 09:07:41;;;;;;;27.23;5.70;;;5.90;99.90;;;;;;5007532;28;20038;-69
2024/01/25 09:10:08;;;;;;;27.05;5.78;;;5.90;99.90;;;;;;5009673;28;20061;-69
2024/01/25 09:12:37;;;;;;;35.30;6.00;;;5.90;99.90;;;;;;5009593;28;20095;-69
2024/01/25 09:15:03;;;;;;;26.27;6.50;;;5.90;99.90;;;;;;5024663;28;20107;-69
2024/01/25 09:17:29;;;;;;;41.70;5.70;;;5.90;99.90;;;;;;5009759;28;20037;-69
2024/01/25 09:19:58;;;;;;;33.95;5.38;;;5.90;99.90;;;;;;5024511;28;20053;-69
2024/01/25 09:22:24;;;;;;;25.40;5.38;;;6.00;99.90;;;;;;5024578;28;20053;-69
2024/01/25 09:24:50;;;;;;;41.90;6.07;;;6.00;99.90;;;;;;5009313;28;20486;-69
2024/01/25 09:27:16;;;;;;;32.70;6.28;;;6.10;99.90;;;;;;5024330;28;20140;-69
2024/01/25 09:29:42;;;;;;;31.75;5.88;;;6.10;99.90;;;;;;5024645;28;20045;-69
2024/01/25 09:32:09;;;;;;;37.47;6.13;;;6.20;99.90;;;;;;5024300;28;20520;-69
2024/01/25 09:34:36;;;;;;;29.40;5.80;;;6.10;99.90;;;;;;5009446;28;20350;-69
2024/01/25 09:37:02;;;;;;;32.20;5.70;;;6.20;99.90;;;;;;5009029;28;20050;-69
2024/01/25 09:39:28;;;;;;;30.35;5.38;;;6.20;99.90;;;;;;4991600;28;20038;-69
2024/01/25 09:41:54;;;;;;;33.35;6.75;;;6.20;99.90;;;;;;5009075;28;20057;-69
2024/01/25 09:44:20;;;;;;;36.50;5.95;;;6.30;99.90;;;;;;5008788;28;20053;-69
2024/01/25 09:46:46;;;;;;;26.52;5.88;;;6.30;99.90;;;;;;5023931;28;20049;-69
2024/01/25 09:49:12;;;;;;;31.05;6.97;;;6.40;99.90;;;;;;5008848;28;20120;-69
2024/01/25 09:51:39;;;;;;;38.25;7.35;;;6.30;99.90;;;;;;5008396;28;20053;-68
2024/01/25 09:54:05;;;;;;;32.83;5.70;;;6.30;99.90;;;;;;5008785;28;20046;-69
2024/01/25 09:56:32;;;;;;;32.78;6.10;;;6.40;99.90;;;;;;5009017;28;20050;-69
2024/01/25 09:58:59;;;;;;;34.83;6.72;;;6.40;99.90;;;;;;5023646;28;20057;-69
2024/01/25 10:01:24;;;;;;;33.75;6.13;;;6.40;99.90;;;;;;5023551;28;20510;-69
2024/01/25 10:03:50;;;;;;;26.67;5.05;;;6.40;99.90;;;;;;5008439;28;20057;-68
2024/01/25 10:06:17;;;;;;;35.47;6.30;;;6.40;99.90;;;;;;5008380;28;20081;-67
2024/01/25 10:08:43;;;;;;;36.85;6.88;;;6.40;99.90;;;;;;5008908;28;20041;-68
2024/01/25 10:11:11;;;;;;;36.30;6.32;;;6.50;99.90;;;;;;5008829;28;20437;-68
2024/01/25 10:13:50;;;;;;;33.55;5.88;;;6.50;99.90;;;;;;5008752;28;20064;-68
2024/01/25 10:16:17;;;;;;;38.35;6.63;;;6.50;99.90;;;;;;5023846;28;20108;-68
2024/01/25 10:18:46;;;;;;;29.45;6.45;;;6.50;99.90;;;;;;5011979;28;20060;-70
2024/01/25 10:21:13;;;;;;;43.28;9.13;;;6.50;99.90;;;;;;5012387;28;20058;-68
2024/01/25 10:23:40;;;;;;;34.45;6.40;;;6.60;99.90;;;;;;5012726;28;20128;-68
2024/01/25 10:26:08;;;;;;;33.58;6.15;;;6.60;99.90;;;;;;5012647;28;20076;-68
2024/01/25 10:28:34;;;;;;;34.78;6.10;;;6.60;99.90;;;;;;5027283;28;20780;-69
2024/01/25 10:31:01;;;;;;;24.50;6.60;;;6.60;99.90;;;;;;5027783;28;20054;-68
2024/01/25 10:33:27;;;;;;;33.22;6.25;;;6.70;99.90;;;;;;5012211;28;20041;-67
2024/01/25 10:36:03;;;;;;;26.52;6.03;;;6.70;99.90;;;;;;5012531;28;20034;-68
2024/01/25 10:38:34;;;;;;;34.10;7.68;;;6.70;99.90;;;;;;4994909;28;20046;-68
2024/01/25 10:41:02;;;;;;;29.42;6.80;;;6.70;99.90;;;;;;5013163;28;20042;-68
2024/01/25 10:43:30;;;;;;;37.50;6.70;;;6.80;99.90;;;;;;5027700;28;20559;-68
2024/01/25 10:45:58;;;;;;;43.63;7.75;;;6.80;99.90;;;;;;5012571;28;20108;-67
2024/01/25 10:48:25;;;;;;;30.85;6.53;;;6.80;99.90;;;;;;5027769;28;20050;-68
2024/01/25 10:50:51;;;;;;;32.85;6.57;;;6.80;99.90;;;;;;5012173;28;20046;-68
2024/01/25 10:53:18;;;;;;;34.08;7.28;;;6.80;99.90;;;;;;5027472;28;20054;-68
2024/01/25 10:55:45;;;;;;;39.50;7.82;;;6.90;99.90;;;;;;4994828;28;20402;-68
2024/01/25 10:58:15;;;;;;;26.23;6.25;;;6.90;99.90;;;;;;4994523;28;20077;-69
2024/01/25 11:00:41;;;;;;;37.42;9.43;;;7.00;99.90;;;;;;5027400;28;20081;-68
2024/01/25 11:03:07;;;;;;;28.65;6.95;;;7.00;99.90;;;;;;5011962;28;20112;-69
2024/01/25 11:05:32;;;;;;;46.95;7.63;;;7.00;99.90;;;;;;5027580;28;20041;-68
2024/01/25 11:07:58;;;;;;;34.35;6.40;;;7.00;99.90;;;;;;5012332;28;20552;-68
2024/01/25 11:10:25;;;;;;;33.05;7.07;;;7.10;99.90;;;;;;5012070;28;20137;-69
2024/01/25 11:13:03;;;;;;;35.33;5.80;;;7.10;99.90;;;;;;5012470;28;20053;-68
2024/01/25 11:15:34;;;;;;;34.83;6.47;;;7.10;99.90;;;;;;5027427;28;20397;-68
2024/01/25 11:18:01;;;;;;;39.53;6.38;;;7.10;99.90;;;;;;5011979;28;20116;-69
2024/01/25 11:20:29;;;;;;;31.73;6.82;;;7.20;99.90;;;;;;5011797;28;20096;-69
2024/01/25 11:23:16;;;;;;;36.45;6.80;;;7.20;99.90;;;;;;5010269;28;20034;-69
2024/01/25 11:25:46;;;;;;;31.98;6.78;;;7.20;99.90;;;;;;5011547;28;20065;-68
2024/01/25 11:28:14;;;;;;;43.97;9.10;;;7.30;99.90;;;;;;4993418;28;20054;-69
2024/01/25 11:30:40;;;;;;;39.50;7.97;;;7.30;99.90;;;;;;5010866;28;20172;-69
2024/01/25 11:33:09;;;;;;;28.67;6.88;;;7.40;99.90;;;;;;5011357;28;20124;-69
2024/01/25 11:35:36;;;;;;;35.25;7.15;;;7.40;99.90;;;;;;5011219;28;20120;-69
2024/01/25 11:38:02;;;;;;;30.83;6.13;;;7.50;99.90;;;;;;5011228;28;20352;-69
2024/01/25 11:40:31;;;;;;;30.88;7.43;;;7.50;99.90;;;;;;5011502;28;20037;-69
2024/01/25 11:42:57;;;;;;;34.92;6.53;;;7.50;99.90;;;;;;5011155;28;20061;-69
2024/01/25 11:45:22;;;;;;;32.38;6.95;;;7.60;99.90;;;;;;5011071;28;20046;-68
2024/01/25 11:47:49;;;;;;;35.42;6.82;;;7.60;99.90;;;;;;5011418;28;20053;-69
2024/01/25 11:50:15;;;;;;;50.97;7.43;;;7.70;99.90;;;;;;5011269;28;20148;-67
2024/01/25 11:52:41;;;;;;;36.75;7.13;;;7.70;99.90;;;;;;5026057;28;20164;-69
2024/01/25 11:55:08;;;;;;;34.60;7.82;;;7.70;99.90;;;;;;5026065;28;20045;-69
2024/01/25 11:57:36;;;;;;;40.50;8.93;;;7.80;99.90;;;;;;5011064;28;20065;-68
2024/01/25 12:00:04;;;;;;;29.80;6.43;;;7.80;99.90;;;;;;5026281;28;20054;-68
2024/01/25 12:02:31;;;;;;;39.25;7.50;;;7.80;99.90;;;;;;5025820;28;20371;-68
2024/01/25 12:04:57;;;;;;;33.47;6.20;;;7.80;99.90;;;;;;5011029;28;20053;-68
2024/01/25 12:07:23;;;;;;;35.45;7.15;;;7.80;99.90;;;;;;5011071;28;20042;-69
2024/01/25 12:10:06;;;;;;;43.60;9.50;;;7.80;99.90;;;;;;5010948;28;20382;-69
2024/01/25 12:12:32;;;;;;;30.77;6.30;;;7.80;99.90;;;;;;5009390;28;20751;-68
2024/01/25 12:14:59;;;;;;;26.02;5.50;;;7.80;99.90;;;;;;5010491;28;20077;-68
2024/01/25 12:17:29;;;;;;;36.10;7.25;;;7.80;99.90;;;;;;5025204;28;20113;-68
2024/01/25 12:19:58;;;;;;;30.15;6.03;;;7.80;99.90;;;;;;5010423;28;20348;-68
2024/01/25 12:22:28;;;;;;;41.28;6.78;;;7.80;99.90;;;;;;5010486;28;20050;-68
2024/01/25 12:24:54;;;;;;;37.53;6.47;;;7.80;99.90;;;;;;5010388;28;20678;-68
2024/01/25 12:27:24;;;;;;;40.97;5.90;;;7.90;99.90;;;;;;5008908;28;20529;-68
2024/01/25 12:29:53;;;;;;;30.02;6.45;;;7.90;99.90;;;;;;5010415;28;20042;-68
2024/01/25 12:32:23;;;;;;;27.98;7.20;;;7.90;99.90;;;;;;5010100;28;20085;-68
2024/01/25 12:35:03;;;;;;;39.05;6.63;;;7.90;99.90;;;;;;5010086;28;20077;-67
2024/01/25 12:37:29;;;;;;;38.05;6.78;;;8.00;99.90;;;;;;5025403;28;20765;-68
2024/01/25 12:39:55;;;;;;;31.77;7.35;;;7.90;99.90;;;;;;5024991;28;20132;-69
2024/01/25 12:42:22;;;;;;;38.83;6.70;;;7.90;99.90;;;;;;5009640;28;20030;-68
2024/01/25 12:44:52;;;;;;;26.00;6.35;;;7.90;99.90;;;;;;5007859;28;20064;-68